Zaporizhzhia, Ukraine

6:47 PM EEST on October 01, 2016 (GMT +0300)
Mokraya | | Change Station

Elev 374 ft 47.87 °N, 35.32 °E | Updated 17 minutes ago

Clear
Clear
64 °F
Feels Like 64 °F
N
4
Wind Variable Wind from SSE

Today
High -- | Low -- °F
--% Chance of Precip.
Yesterday
High -- | Low -- °F
Precip. -- in
Pressure 30.15 in
Visibility -9999.0 miles
Clouds
Dew Point 54 °F
Humidity 68%
Rainfall 0.00 in
Snow Depth Not available.
6:38 AM 6:17 PM
New Moon, 0% visible
METAR UKDE 011530Z 16002MPS CAVOK 18/12 Q1021 R20/210570 NOSIG
Pressure 30.15 in
Visibility -9999.0 miles
Clouds
Dew Point 54 °F
Humidity 68%
Rainfall 0.00 in
Snow Depth Not available.
6:38 AM 6:17 PM
New Moon, 0% visible
METAR UKDE 011530Z 16002MPS CAVOK 18/12 Q1021 R20/210570 NOSIG

10-Day Weather Forecast

×

Almanac

Astronomy

Oct. 01, 2016 Rise Set
Actual Time
Civil Twilight
Nautical Twilight
Astronomical Twilight
Moon
Length of Visible Light
Length of Day
Tomorrow will be .
, % of the Moon is Illuminated

Today's Extremes

Country Highs Country Lows

Community

WunderPhotos

Upload Photos

1,942,957 photos uploaded!

WunderBlog® & News

Nearby

Air Quality

  Air Quality AQ Index Pollutant
Not available.

Snow Depth

Station Depth Elevation

Earthquake Activity

City Distance Mag. Time & Date
Minimum magnitude displayed is 2.5.

Coastal Water Temperatures

Place Temperature

Stations

Nearby Weather Stations

Station Location Temp. Windchill Dew Point Humidity Wind Precip. Elev Updated Type